Time;durP1;ratioP1;P1;durP2;ratioP2;P2;SDS_P1;SDS_P2;PMS_P1;PMS_P2;Temp;Humidity;BMP_temperature;BMP_pressure;BME280_temperature;BME280_humidity;BME280_pressure;Samples;Min_cycle;Max_cycle;Signal;HPM_P1;HPM_P2
2021/05/05 00:00:25;;;;;;;2.38;1.50;;;;;;;4.39;56.96;98107.97;5014616;28;20030;-61
2021/05/05 00:02:50;;;;;;;1.60;1.08;;;;;;;4.03;58.88;98102.63;5014887;28;20482;-61
2021/05/05 00:05:16;;;;;;;2.90;1.40;;;;;;;4.17;57.84;98099.75;5014531;28;20029;-61
2021/05/05 00:07:42;;;;;;;3.72;1.55;;;;;;;3.95;59.28;98097.66;5014627;28;20050;-62
2021/05/05 00:10:08;;;;;;;4.25;1.42;;;;;;;4.30;56.59;98088.97;5014402;28;20033;-62
2021/05/05 00:12:35;;;;;;;3.90;1.60;;;;;;;4.34;56.51;98084.78;5014856;28;20030;-62
2021/05/05 00:15:00;;;;;;;1.83;1.13;;;;;;;4.23;57.40;98085.59;5014890;28;20034;-62
2021/05/05 00:17:26;;;;;;;4.20;1.52;;;;;;;4.25;56.80;98083.53;5014524;28;20120;-62
2021/05/05 00:19:51;;;;;;;2.25;1.60;;;;;;;4.23;57.09;98078.44;5029788;28;20092;-61
2021/05/05 00:22:16;;;;;;;2.60;1.35;;;;;;;4.15;57.59;98086.75;5014092;28;20431;-61
2021/05/05 00:24:42;;;;;;;4.00;1.70;;;;;;;4.10;57.77;98078.69;5014549;28;20026;-62
2021/05/05 00:27:07;;;;;;;2.35;1.40;;;;;;;4.19;57.27;98076.47;5014056;28;20527;-61
2021/05/05 00:29:33;;;;;;;5.22;1.38;;;;;;;4.09;57.69;98077.88;5014749;28;20026;-62
2021/05/05 00:31:58;;;;;;;4.45;1.50;;;;;;;4.06;58.10;98074.84;5014069;28;20042;-62
2021/05/05 00:34:26;;;;;;;3.83;1.70;;;;;;;3.98;58.65;98069.91;4996638;28;20476;-62
2021/05/05 00:36:52;;;;;;;5.25;1.63;;;;;;;3.75;59.69;98065.34;5013878;28;20038;-61
2021/05/05 00:39:17;;;;;;;4.30;1.42;;;;;;;3.77;59.52;98069.41;5014244;28;20033;-61
2021/05/05 00:41:43;;;;;;;3.45;1.60;;;;;;;3.84;59.73;98066.63;5013686;28;20050;-61
2021/05/05 00:44:08;;;;;;;2.28;1.38;;;;;;;3.89;59.53;98075.53;5014231;28;20088;-61
2021/05/05 00:46:33;;;;;;;5.40;1.60;;;;;;;3.84;59.30;98061.31;5013708;28;20046;-61
2021/05/05 00:48:59;;;;;;;5.43;1.63;;;;;;;3.93;59.50;98072.41;5014130;28;20021;-61
2021/05/05 00:51:24;;;;;;;1.65;1.20;;;;;;;4.02;59.16;98071.88;5013260;28;20048;-61
2021/05/05 00:53:50;;;;;;;3.40;1.55;;;;;;;4.10;58.49;98066.22;5013964;28;20036;-62
2021/05/05 00:56:15;;;;;;;4.95;1.60;;;;;;;3.97;59.51;98068.25;5013527;28;20080;-61
2021/05/05 00:58:40;;;;;;;4.93;1.83;;;;;;;3.96;59.37;98062.16;5012764;28;20034;-62
2021/05/05 01:01:06;;;;;;;4.63;1.77;;;;;;;3.98;59.50;98065.38;5013305;28;20050;-62
2021/05/05 01:03:32;;;;;;;4.72;1.85;;;;;;;4.18;58.68;98065.06;5013974;28;20029;-62
2021/05/05 01:05:57;;;;;;;9.95;2.03;;;;;;;4.05;59.51;98060.00;5013580;28;20084;-61
2021/05/05 01:08:22;;;;;;;6.50;1.60;;;;;;;4.03;59.36;98062.88;5013530;28;20092;-62
2021/05/05 01:10:49;;;;;;;4.97;1.65;;;;;;;4.16;59.27;98071.66;5013353;28;20050;-61
2021/05/05 01:13:15;;;;;;;3.28;1.50;;;;;;;4.11;59.38;98061.72;5013916;28;20034;-62
2021/05/05 01:15:41;;;;;;;2.90;1.65;;;;;;;3.98;59.90;98057.44;5013155;28;20088;-61
2021/05/05 01:18:06;;;;;;;4.13;1.70;;;;;;;4.06;60.01;98051.00;5013737;28;20030;-62
2021/05/05 01:20:32;;;;;;;3.08;1.70;;;;;;;3.90;60.56;98047.19;5013011;28;20504;-62
2021/05/05 01:22:57;;;;;;;5.93;1.95;;;;;;;3.77;61.37;98042.06;5013327;28;20122;-61
2021/05/05 01:25:23;;;;;;;6.90;1.63;;;;;;;3.59;62.21;98035.78;5012666;28;20096;-61
2021/05/05 01:27:48;;;;;;;5.82;1.45;;;;;;;3.54;62.65;98025.06;5013439;28;20096;-62
2021/05/05 01:30:15;;;;;;;3.78;1.70;;;;;;;3.67;62.08;98027.53;5012684;28;20079;-63
2021/05/05 01:32:41;;;;;;;3.17;1.42;;;;;;;3.53;62.75;98020.81;5013319;28;20033;-61
2021/05/05 01:35:09;;;;;;;4.55;1.63;;;;;;;3.46;63.33;98020.09;5012663;28;20469;-61
2021/05/05 01:37:34;;;;;;;4.25;1.60;;;;;;;3.35;64.32;98023.53;5013202;28;20023;-61
2021/05/05 01:40:00;;;;;;;4.60;2.00;;;;;;;3.34;64.42;98028.00;5012873;28;20104;-61
2021/05/05 01:42:25;;;;;;;4.40;1.80;;;;;;;3.29;65.54;98029.72;5012673;28;20046;-61
2021/05/05 01:44:51;;;;;;;4.05;1.80;;;;;;;3.42;64.50;98022.41;5013133;28;20034;-61
2021/05/05 01:47:16;;;;;;;4.28;1.60;;;;;;;3.38;65.09;98017.78;5012203;28;20049;-61
2021/05/05 01:49:45;;;;;;;4.30;2.05;;;;;;;3.21;65.94;98034.28;5028421;28;20029;-61
2021/05/05 01:52:11;;;;;;;1.98;1.50;;;;;;;3.31;65.76;98032.94;5012628;28;20484;-61
2021/05/05 01:54:37;;;;;;;5.60;1.83;;;;;;;3.22;65.91;98025.31;5013006;28;20057;-61
2021/05/05 01:57:31;;;;;;;3.53;1.67;;;;;;;3.17;66.52;98043.72;5012811;28;20053;-61
2021/05/05 01:59:56;;;;;;;5.78;2.05;;;;;;;2.97;67.69;98037.84;5012979;28;20048;-61
2021/05/05 02:02:22;;;;;;;5.45;1.92;;;;;;;3.12;66.84;98032.16;5012521;28;20066;-61
2021/05/05 02:04:47;;;;;;;2.92;1.60;;;;;;;3.02;67.69;98038.00;5012878;28;20041;-61
2021/05/05 02:07:12;;;;;;;5.63;1.60;;;;;;;3.02;67.89;98040.63;4994579;28;20488;-61
2021/05/05 02:09:39;;;;;;;6.00;1.90;;;;;;;2.99;67.31;98036.59;5012970;28;20039;-61
2021/05/05 02:12:04;;;;;;;3.70;1.73;;;;;;;2.99;67.22;98036.59;5012550;28;20042;-61
2021/05/05 02:14:30;;;;;;;3.72;1.95;;;;;;;2.97;67.34;98032.56;5012788;28;20030;-61
2021/05/05 02:16:56;;;;;;;3.65;1.77;;;;;;;2.92;67.43;98029.75;5012249;28;20085;-61
2021/05/05 02:19:22;;;;;;;5.45;2.40;;;;;;;2.85;68.22;98024.56;5012719;28;20037;-61
2021/05/05 02:21:47;;;;;;;5.28;2.03;;;;;;;2.83;67.80;98039.06;5012348;28;20054;-61
2021/05/05 02:24:12;;;;;;;8.18;2.30;;;;;;;2.71;68.64;98041.63;5012674;28;20038;-61
2021/05/05 02:26:38;;;;;;;6.85;1.90;;;;;;;2.69;68.71;98057.72;5012328;28;20100;-61
2021/05/05 02:29:03;;;;;;;4.78;1.73;;;;;;;2.68;68.61;98050.00;5012815;28;20079;-61
2021/05/05 02:31:29;;;;;;;3.95;1.48;;;;;;;2.66;68.80;98046.78;5012227;28;20034;-61
2021/05/05 02:33:54;;;;;;;4.28;1.85;;;;;;;2.60;68.91;98051.09;5012654;28;20022;-61
2021/05/05 02:36:20;;;;;;;2.03;1.00;;;;;;;2.62;68.89;98041.13;5012192;28;20046;-61
2021/05/05 02:38:45;;;;;;;3.97;1.70;;;;;;;2.52;69.39;98046.09;5012545;28;20034;-61
2021/05/05 02:41:10;;;;;;;5.57;2.00;;;;;;;2.53;69.63;98040.59;5027274;28;20038;-61
2021/05/05 02:43:36;;;;;;;3.58;2.00;;;;;;;2.48;69.68;98047.56;5012669;28;20037;-61
2021/05/05 02:46:01;;;;;;;7.03;1.85;;;;;;;2.37;70.12;98049.91;5012214;28;20038;-61
2021/05/05 02:48:27;;;;;;;5.75;2.03;;;;;;;2.44;69.74;98043.72;5012630;28;20449;-61
2021/05/05 02:50:52;;;;;;;6.45;2.25;;;;;;;2.41;70.17;98038.88;5011963;28;20411;-61
2021/05/05 02:53:17;;;;;;;3.70;1.80;;;;;;;2.32;70.49;98047.13;5012444;28;20477;-60
2021/05/05 02:55:43;;;;;;;5.35;1.80;;;;;;;2.28;70.50;98051.22;5011923;28;20038;-61
2021/05/05 02:58:08;;;;;;;5.72;1.80;;;;;;;2.25;70.65;98038.44;5012411;28;20030;-61
2021/05/05 03:00:34;;;;;;;7.15;1.58;;;;;;;2.28;70.90;98040.63;5015266;28;20100;-61
2021/05/05 03:02:59;;;;;;;2.65;1.40;;;;;;;2.20;71.52;98035.63;5016196;28;20049;-61
2021/05/05 03:05:25;;;;;;;3.40;1.45;;;;;;;2.31;71.02;98034.91;5015639;28;20444;-61
2021/05/05 03:07:50;;;;;;;4.47;1.75;;;;;;;2.33;71.08;98039.97;4998206;28;20088;-61
2021/05/05 03:10:15;;;;;;;6.60;2.05;;;;;;;2.41;71.19;98039.69;4998165;28;20041;-61
2021/05/05 03:12:41;;;;;;;2.97;1.58;;;;;;;2.52;70.77;98035.50;5015917;28;20354;-61
2021/05/05 03:15:07;;;;;;;6.03;2.03;;;;;;;2.52;70.96;98046.91;4997833;28;20026;-61
2021/05/05 03:17:32;;;;;;;5.78;2.47;;;;;;;2.60;70.46;98029.94;5015846;28;20034;-61
2021/05/05 03:19:58;;;;;;;3.70;1.80;;;;;;;2.65;70.76;98037.22;5015722;28;20334;-61
2021/05/05 03:22:23;;;;;;;4.38;2.00;;;;;;;2.62;70.88;98037.63;5015311;28;20404;-61
2021/05/05 03:24:48;;;;;;;6.82;1.73;;;;;;;2.62;71.38;98041.13;5031123;28;20468;-61
2021/05/05 03:27:14;;;;;;;6.07;1.80;;;;;;;2.64;70.92;98041.69;5015197;28;20038;-61
2021/05/05 03:29:39;;;;;;;6.57;2.53;;;;;;;2.57;71.55;98040.94;5015766;28;20021;-61
2021/05/05 03:32:05;;;;;;;6.60;1.92;;;;;;;2.54;71.50;98049.31;5015169;28;20057;-61
2021/05/05 03:34:30;;;;;;;4.05;1.73;;;;;;;2.50;71.49;98053.44;5015498;28;20061;-61
2021/05/05 03:36:55;;;;;;;8.52;2.15;;;;;;;2.52;71.70;98051.38;5015204;28;20046;-61
2021/05/05 03:39:21;;;;;;;5.20;1.88;;;;;;;2.41;71.91;98050.28;5015452;28;20469;-61
2021/05/05 03:41:46;;;;;;;5.32;1.90;;;;;;;2.39;71.94;98054.97;5015000;28;20375;-61
2021/05/05 03:44:12;;;;;;;7.00;1.63;;;;;;;2.38;71.95;98046.22;5015341;28;20476;-64
2021/05/05 03:46:38;;;;;;;9.57;2.00;;;;;;;2.26;72.72;98047.97;5014877;28;20045;-61
2021/05/05 03:49:04;;;;;;;5.88;2.08;;;;;;;2.18;72.86;98053.53;5015472;28;20460;-61
2021/05/05 03:51:30;;;;;;;5.40;1.98;;;;;;;2.11;73.33;98050.13;5030229;28;20443;-61
2021/05/05 03:53:55;;;;;;;5.18;1.95;;;;;;;2.10;73.37;98051.19;5015580;28;20088;-61
2021/05/05 03:56:20;;;;;;;4.75;1.98;;;;;;;2.12;73.29;98057.03;5015004;28;20100;-60
2021/05/05 03:58:46;;;;;;;5.57;1.98;;;;;;;2.15;73.16;98059.25;5015579;28;20021;-61
2021/05/05 04:01:11;;;;;;;6.47;2.22;;;;;;;2.26;73.08;98055.09;5014896;28;20045;-61
2021/05/05 04:03:37;;;;;;;7.25;1.88;;;;;;;2.34;72.63;98063.53;5015012;28;20412;-61
2021/05/05 04:06:02;;;;;;;5.75;1.77;;;;;;;2.42;72.10;98072.22;5014677;28;20360;-61
2021/05/05 04:08:28;;;;;;;8.32;1.98;;;;;;;2.41;72.15;98074.06;5014726;28;20085;-61
2021/05/05 04:10:53;;;;;;;3.03;1.70;;;;;;;2.35;72.40;98073.13;5013978;28;20049;-61
2021/05/05 04:13:19;;;;;;;6.85;2.20;;;;;;;2.27;73.26;98073.41;5014758;28;20049;-61
2021/05/05 04:15:45;;;;;;;5.50;1.90;;;;;;;2.30;72.72;98066.88;5013515;28;20088;-61
2021/05/05 04:18:10;;;;;;;5.13;1.58;;;;;;;2.42;72.37;98069.59;5014698;28;20034;-61
2021/05/05 04:20:36;;;;;;;9.02;2.13;;;;;;;2.40;72.42;98079.56;4996478;28;20503;-61
2021/05/05 04:23:01;;;;;;;4.75;1.90;;;;;;;2.68;71.39;98077.28;5013312;28;20030;-61
2021/05/05 04:25:26;;;;;;;6.55;1.80;;;;;;;2.43;72.41;98079.97;5014403;28;20038;-61
2021/05/05 04:27:52;;;;;;;5.78;1.85;;;;;;;2.32;72.88;98089.41;5014477;28;20026;-61
2021/05/05 04:30:18;;;;;;;4.65;1.88;;;;;;;2.66;71.97;98095.19;5013991;28;20034;-61
2021/05/05 04:32:47;;;;;;;2.70;1.52;;;;;;;3.23;69.54;98095.78;5029476;28;20029;-61
2021/05/05 04:35:13;;;;;;;7.22;2.08;;;;;;;3.96;67.27;98096.63;5014414;28;20080;-61
2021/05/05 04:37:38;;;;;;;7.07;2.38;;;;;;;4.06;66.20;98094.22;5014602;28;20025;-61
2021/05/05 04:40:05;;;;;;;6.70;1.90;;;;;;;3.89;66.74;98093.25;5013969;28;20483;-61
2021/05/05 04:42:31;;;;;;;6.05;1.95;;;;;;;3.01;70.40;98090.13;5014349;28;20112;-61
2021/05/05 04:44:56;;;;;;;6.50;2.55;;;;;;;2.43;73.04;98102.97;4996774;28;20029;-60
2021/05/05 04:47:22;;;;;;;4.22;1.95;;;;;;;2.58;72.56;98106.88;5013773;28;20061;-61
2021/05/05 04:49:47;;;;;;;8.55;2.10;;;;;;;2.49;73.05;98112.66;5014520;28;20037;-61
2021/05/05 04:52:12;;;;;;;10.07;2.65;;;;;;;2.38;73.72;98117.63;5013703;28;20050;-61
2021/05/05 04:54:38;;;;;;;6.97;2.15;;;;;;;2.41;73.66;98115.59;5013969;28;20026;-61
2021/05/05 04:57:03;;;;;;;5.82;2.20;;;;;;;2.41;73.59;98120.88;5028997;28;20045;-61
2021/05/05 04:59:29;;;;;;;7.45;2.08;;;;;;;2.34;73.93;98113.78;5014241;28;20129;-61
2021/05/05 05:01:54;;;;;;;3.20;1.50;;;;;;;2.31;74.11;98119.50;5012100;28;20041;-61
2021/05/05 05:04:20;;;;;;;6.40;1.98;;;;;;;2.41;74.13;98123.50;5013453;28;20025;-61
2021/05/05 05:06:45;;;;;;;4.00;1.75;;;;;;;2.62;73.07;98133.72;5013537;28;20037;-61
2021/05/05 05:09:11;;;;;;;3.47;1.88;;;;;;;2.69;72.83;98131.78;5013566;28;20101;-61
2021/05/05 05:11:36;;;;;;;3.90;1.83;;;;;;;2.68;72.97;98138.13;5013333;28;20053;-61
2021/05/05 05:14:02;;;;;;;7.72;2.10;;;;;;;2.58;73.57;98135.97;5013786;28;20461;-61
2021/05/05 05:16:27;;;;;;;9.30;1.92;;;;;;;2.62;73.61;98125.78;5013241;28;20096;-61
2021/05/05 05:18:52;;;;;;;9.48;2.25;;;;;;;2.63;73.74;98131.88;5013731;28;20388;-61
2021/05/05 05:21:18;;;;;;;3.58;1.67;;;;;;;2.64;73.82;98136.94;5012099;28;20038;-61
2021/05/05 05:23:44;;;;;;;8.35;2.17;;;;;;;2.82;72.99;98141.44;5013658;28;20025;-61
2021/05/05 05:26:09;;;;;;;6.38;2.60;;;;;;;5.03;65.29;98134.63;5013631;28;20045;-61
2021/05/05 05:28:35;;;;;;;5.00;2.10;;;;;;;6.09;59.87;98148.44;4996425;28;20148;-61
2021/05/05 05:31:00;;;;;;;6.25;2.38;;;;;;;7.69;55.31;98165.63;5012971;28;20117;-61
2021/05/05 05:33:27;;;;;;;8.23;2.40;;;;;;;8.62;52.24;98168.16;5013521;28;20052;-61
2021/05/05 05:35:52;;;;;;;4.78;2.10;;;;;;;8.00;53.05;98161.44;5012890;28;20388;-61
2021/05/05 05:38:18;;;;;;;5.18;2.10;;;;;;;7.35;56.42;98168.41;5013472;28;20025;-60
2021/05/05 05:40:43;;;;;;;6.70;2.45;;;;;;;7.22;56.62;98182.13;5012789;28;20573;-61
2021/05/05 05:43:08;;;;;;;6.75;2.10;;;;;;;7.99;53.98;98181.97;5013179;28;20037;-61
2021/05/05 05:45:34;;;;;;;5.35;2.25;;;;;;;6.52;59.19;98184.28;5012753;28;20396;-61
2021/05/05 05:48:00;;;;;;;6.05;1.98;;;;;;;4.73;65.36;98178.84;5013448;28;20025;-61
2021/05/05 05:50:25;;;;;;;7.85;2.42;;;;;;;4.64;67.44;98176.78;5013001;28;20107;-61
2021/05/05 05:52:51;;;;;;;4.35;1.70;;;;;;;4.72;66.94;98189.72;5013187;28;20066;-61
2021/05/05 05:55:17;;;;;;;9.05;2.70;;;;;;;4.35;68.82;98197.03;5012545;28;20372;-60
2021/05/05 05:57:43;;;;;;;5.68;2.08;;;;;;;3.98;70.70;98205.91;5013105;28;20635;-60
2021/05/05 06:00:11;;;;;;;11.60;3.10;;;;;;;3.90;72.47;98195.63;5012410;28;20084;-60
2021/05/05 06:02:36;;;;;;;6.65;2.30;;;;;;;3.57;73.60;98190.72;5013234;28;20030;-60
2021/05/05 06:05:02;;;;;;;8.20;2.75;;;;;;;3.51;74.52;98189.78;5012539;28;20022;-60
2021/05/05 06:07:27;;;;;;;8.85;2.20;;;;;;;3.68;74.90;98198.75;5013053;28;20050;-61
2021/05/05 06:09:53;;;;;;;6.18;2.30;;;;;;;3.71;75.92;98197.50;5012961;28;20029;-60
2021/05/05 06:12:18;;;;;;;7.10;2.38;;;;;;;3.95;74.29;98202.91;5012340;28;20037;-60
2021/05/05 06:14:44;;;;;;;5.93;2.22;;;;;;;3.85;74.35;98192.84;5012783;28;20088;-61
2021/05/05 06:17:09;;;;;;;8.63;3.33;;;;;;;3.83;74.76;98195.72;5012409;28;20062;-60
2021/05/05 06:19:35;;;;;;;5.97;2.50;;;;;;;5.97;66.36;98203.53;5011530;28;20068;-60
2021/05/05 06:22:00;;;;;;;5.00;3.08;;;;;;;8.72;56.59;98197.63;5012334;28;20080;-61
2021/05/05 06:24:26;;;;;;;5.97;2.22;;;;;;;10.50;50.78;98204.81;5012718;28;20018;-60
2021/05/05 06:26:51;;;;;;;6.18;2.40;;;;;;;12.06;46.21;98211.25;5012376;28;20041;-61
2021/05/05 06:29:18;;;;;;;6.10;2.38;;;;;;;8.55;57.90;98204.94;5012648;28;20029;-61
2021/05/05 06:31:43;;;;;;;6.90;2.13;;;;;;;7.55;58.29;98197.19;5012374;28;20045;-60
2021/05/05 06:34:09;;;;;;;6.43;2.20;;;;;;;7.06;59.92;98189.06;5016005;28;20025;-60
2021/05/05 06:36:34;;;;;;;7.00;2.50;;;;;;;6.23;64.11;98191.50;5016434;28;20045;-60
2021/05/05 06:39:00;;;;;;;8.73;2.78;;;;;;;9.79;52.79;98202.78;4999233;28;20030;-61
2021/05/05 06:41:25;;;;;;;10.30;5.30;;;;;;;12.12;46.95;98208.53;5016404;28;20042;-61
2021/05/05 06:43:51;;;;;;;8.43;2.60;;;;;;;13.50;43.52;98212.78;5016641;28;20038;-62
2021/05/05 06:46:16;;;;;;;6.80;2.80;;;;;;;15.03;39.68;98223.38;4999085;28;20385;-62
2021/05/05 06:48:41;;;;;;;7.15;2.53;;;;;;;10.11;51.24;98213.31;5016837;28;20080;-61
2021/05/05 06:51:07;;;;;;;8.00;2.83;;;;;;;10.42;51.04;98205.38;5016011;28;20045;-61
2021/05/05 06:53:32;;;;;;;6.82;3.00;;;;;;;12.13;46.13;98229.75;5016375;28;20103;-61
2021/05/05 06:55:58;;;;;;;4.10;2.10;;;;;;;9.24;54.06;98223.63;5015934;28;20463;-60
2021/05/05 06:58:23;;;;;;;6.03;2.15;;;;;;;7.61;58.41;98217.53;5016226;28;20018;-60
2021/05/05 07:00:48;;;;;;;7.97;2.75;;;;;;;8.70;56.80;98218.44;5015723;28;20046;-60
2021/05/05 07:03:14;;;;;;;4.82;2.38;;;;;;;7.82;59.13;98217.78;4998514;28;20022;-60
2021/05/05 07:05:39;;;;;;;5.60;2.97;;;;;;;7.91;59.19;98211.78;5016007;28;20041;-61
2021/05/05 07:08:05;;;;;;;6.95;2.90;;;;;;;8.18;59.19;98210.97;4998376;28;20046;-61
2021/05/05 07:10:30;;;;;;;5.97;3.65;;;;;;;7.68;59.94;98206.69;5015691;28;20050;-60
2021/05/05 07:12:56;;;;;;;6.30;2.75;;;;;;;8.33;57.47;98203.13;5030853;28;20010;-61
2021/05/05 07:15:21;;;;;;;5.88;2.50;;;;;;;8.46;56.74;98201.91;5015489;28;20041;-61
2021/05/05 07:17:48;;;;;;;7.03;2.58;;;;;;;9.75;53.46;98208.91;5016213;28;20030;-60
2021/05/05 07:20:14;;;;;;;4.75;2.20;;;;;;;9.36;53.02;98214.59;5015359;28;20064;-62
2021/05/05 07:22:39;;;;;;;4.47;2.40;;;;;;;8.34;57.00;98204.75;4998247;28;20532;-62
2021/05/05 07:25:05;;;;;;;4.00;1.98;;;;;;;7.32;59.70;98201.72;5030710;28;20038;-63
2021/05/05 07:27:32;;;;;;;4.88;2.28;;;;;;;7.48;59.19;98202.69;5015686;28;20022;-60
2021/05/05 07:29:57;;;;;;;4.85;2.40;;;;;;;7.81;59.21;98195.63;5015799;28;20066;-60
2021/05/05 07:32:23;;;;;;;5.22;2.85;;;;;;;8.49;56.25;98197.97;5015346;28;20045;-62
2021/05/05 07:34:49;;;;;;;5.53;2.33;;;;;;;7.43;59.96;98194.63;4998398;28;20022;-62
2021/05/05 07:37:22;;;;;;;5.95;2.50;;;;;;;7.15;60.64;98192.94;5015390;28;20104;-62
2021/05/05 07:47:28;;;;;;;6.50;4.88;;;;;;;5.97;64.93;98256.72;5014268;28;20057;-62
2021/05/05 07:49:55;;;;;;;4.30;2.92;;;;;;;5.51;68.55;98253.09;5015779;28;20057;-63
2021/05/05 07:52:21;;;;;;;7.30;4.70;;;;;;;5.06;69.39;98266.97;5015077;28;20040;-63
2021/05/05 07:54:47;;;;;;;9.00;6.93;;;;;;;4.83;70.88;98257.94;5015377;28;20018;-63
2021/05/05 07:57:12;;;;;;;6.68;4.75;;;;;;;5.02;70.58;98249.84;5014934;28;20516;-62
2021/05/05 07:59:38;;;;;;;5.07;3.78;;;;;;;5.26;70.06;98267.41;5015426;28;20061;-63
2021/05/05 08:02:04;;;;;;;4.38;2.35;;;;;;;5.17;70.71;98269.63;5029971;28;20563;-63
2021/05/05 08:04:29;;;;;;;1.13;1.13;;;;;;;4.39;74.53;98262.66;5015250;28;20362;-63
2021/05/05 08:06:55;;;;;;;2.30;1.80;;;;;;;4.42;74.41;98272.84;5014860;28;20345;-63
2021/05/05 08:09:22;;;;;;;1.58;1.33;;;;;;;4.56;70.76;98273.44;5014955;28;20050;-63
2021/05/05 08:11:48;;;;;;;1.45;1.23;;;;;;;4.44;73.84;98270.78;5014999;28;20052;-63
2021/05/05 08:14:13;;;;;;;2.72;1.50;;;;;;;4.41;74.53;98273.88;5015213;28;20037;-63
2021/05/05 08:16:39;;;;;;;4.03;1.60;;;;;;;6.20;68.97;98275.25;5014655;28;20038;-63
2021/05/05 08:19:04;;;;;;;1.70;1.50;;;;;;;9.04;58.66;98279.63;5014991;28;20029;-63
2021/05/05 08:21:30;;;;;;;2.65;1.50;;;;;;;10.26;55.99;98276.00;5014373;28;20049;-63
2021/05/05 08:23:56;;;;;;;1.60;1.30;;;;;;;9.90;55.35;98291.94;5014834;28;20083;-62
2021/05/05 08:26:22;;;;;;;1.63;1.52;;;;;;;10.36;54.01;98281.44;5029511;28;20397;-63
2021/05/05 08:28:47;;;;;;;3.10;1.60;;;;;;;10.66;54.10;98285.22;5014957;28;20018;-63
2021/05/05 08:31:13;;;;;;;4.50;2.97;;;;;;;10.78;54.14;98280.41;5029709;28;20041;-62
2021/05/05 08:33:38;;;;;;;3.33;1.58;;;;;;;9.07;56.84;98277.25;5014707;28;20022;-63
2021/05/05 08:36:04;;;;;;;2.97;2.00;;;;;;;8.79;59.83;98275.69;5014202;28;20504;-63
2021/05/05 08:38:29;;;;;;;3.67;2.42;;;;;;;9.50;57.27;98263.91;5014531;28;20472;-64
2021/05/05 08:40:55;;;;;;;5.03;2.75;;;;;;;10.61;54.14;98261.94;4996689;28;20049;-62
2021/05/05 08:43:21;;;;;;;2.65;1.80;;;;;;;10.26;53.29;98260.75;5014628;28;20041;-64
2021/05/05 08:45:50;;;;;;;4.28;1.63;;;;;;;10.56;52.96;98268.09;5014016;28;20415;-63
2021/05/05 08:48:18;;;;;;;3.42;2.05;;;;;;;10.24;54.17;98275.47;4996588;28;20032;-62
2021/05/05 08:50:47;;;;;;;3.20;1.80;;;;;;;9.19;56.05;98285.09;5013984;28;20037;-63
2021/05/05 08:53:12;;;;;;;4.22;1.90;;;;;;;8.56;58.01;98279.50;5014513;28;20050;-63
2021/05/05 08:55:38;;;;;;;3.03;1.63;;;;;;;7.59;62.05;98285.50;5014280;28;20062;-63
2021/05/05 08:58:04;;;;;;;2.10;1.60;;;;;;;6.54;63.26;98275.38;5014419;28;20057;-63
2021/05/05 09:00:36;;;;;;;2.92;1.60;;;;;;;6.60;62.68;98314.31;5012552;28;20038;-63
2021/05/05 09:03:02;;;;;;;1.50;1.40;;;;;;;6.15;63.92;98324.91;4997025;28;20063;-63
2021/05/05 09:05:28;;;;;;;1.30;1.20;;;;;;;5.38;68.52;98344.50;4996129;28;20315;-63
2021/05/05 09:07:53;;;;;;;2.05;1.50;;;;;;;5.09;70.48;98362.13;4996398;28;20116;-63
2021/05/05 09:10:21;;;;;;;2.00;1.38;;;;;;;4.80;72.22;98359.28;5013820;28;20045;-64
2021/05/05 09:12:49;;;;;;;2.15;1.70;;;;;;;4.49;73.01;98352.34;5014426;28;20034;-64
2021/05/05 09:15:19;;;;;;;5.00;2.10;;;;;;;4.31;75.08;98339.94;5013533;28;20027;-63
2021/05/05 09:17:48;;;;;;;1.92;1.50;;;;;;;4.53;68.00;98317.19;5012919;28;20014;-63
2021/05/05 09:20:14;;;;;;;2.42;1.80;;;;;;;4.69;70.29;98328.19;5013261;28;20445;-63
2021/05/05 09:22:51;;;;;;;3.58;2.42;;;;;;;4.94;71.60;98333.31;5013947;28;20112;-63
2021/05/05 09:25:22;;;;;;;3.28;1.83;;;;;;;5.19;70.92;98336.63;4995753;28;20057;-63
2021/05/05 09:28:07;;;;;;;2.88;1.85;;;;;;;5.70;71.12;98334.31;5013974;28;20413;-64
2021/05/05 09:30:33;;;;;;;4.13;2.17;;;;;;;6.44;68.32;98328.38;5012309;28;20053;-62
2021/05/05 09:32:58;;;;;;;4.47;2.78;;;;;;;6.82;67.75;98330.44;5013719;28;20357;-63
2021/05/05 09:35:37;;;;;;;3.33;2.30;;;;;;;7.38;66.29;98327.88;5013097;28;20051;-63
2021/05/05 09:38:08;;;;;;;3.83;2.10;;;;;;;8.11;61.46;98333.13;5013736;28;20029;-63
2021/05/05 09:40:37;;;;;;;2.55;1.80;;;;;;;9.03;60.17;98342.97;5012785;28;20054;-63
2021/05/05 09:43:16;;;;;;;2.90;1.80;;;;;;;8.49;58.91;98332.28;5013560;28;20021;-62
2021/05/05 09:45:41;;;;;;;2.67;1.90;;;;;;;9.57;58.18;98334.03;5012023;28;20064;-62
2021/05/05 09:48:07;;;;;;;3.65;1.90;;;;;;;9.45;56.78;98330.72;5013414;28;20326;-63
2021/05/05 09:50:38;;;;;;;2.10;1.60;;;;;;;10.44;54.66;98334.50;5013089;28;20162;-63
2021/05/05 09:53:32;;;;;;;3.17;1.77;;;;;;;9.76;56.97;98330.91;5013466;28;20089;-63
2021/05/05 09:55:58;;;;;;;2.20;1.85;;;;;;;9.92;57.05;98332.63;5013088;28;20030;-63
2021/05/05 09:58:23;;;;;;;2.28;1.70;;;;;;;11.60;51.32;98326.00;5013242;28;20025;-63
2021/05/05 10:01:04;;;;;;;3.97;2.00;;;;;;;11.75;50.66;98338.59;5012620;28;20049;-63
2021/05/05 10:03:38;;;;;;;2.25;1.70;;;;;;;11.42;47.96;98338.91;5013332;28;20166;-63
2021/05/05 10:06:19;;;;;;;2.42;1.63;;;;;;;11.62;49.65;98346.13;5012668;28;20037;-63
2021/05/05 10:08:45;;;;;;;2.65;1.77;;;;;;;11.60;48.90;98340.22;5012677;28;20378;-65
2021/05/05 10:11:11;;;;;;;5.00;1.80;;;;;;;12.62;48.31;98346.38;4979127;28;20048;-63
2021/05/05 10:13:36;;;;;;;2.78;1.70;;;;;;;12.90;43.49;98343.00;4995866;28;20022;-63
2021/05/05 10:16:02;;;;;;;2.60;1.85;;;;;;;12.07;44.03;98340.97;5012899;28;20034;-64
2021/05/05 10:18:27;;;;;;;3.33;1.70;;;;;;;11.25;47.05;98338.38;4979423;28;20384;-65
2021/05/05 10:20:53;;;;;;;3.53;1.92;;;;;;;11.85;47.74;98360.84;5013057;28;20089;-62
2021/05/05 10:23:18;;;;;;;2.25;1.48;;;;;;;11.06;46.63;98346.16;5011258;28;20033;-65
2021/05/05 10:25:46;;;;;;;1.95;1.40;;;;;;;10.83;45.50;98366.19;4995254;28;20515;-64
2021/05/05 10:28:11;;;;;;;4.05;2.35;;;;;;;10.42;46.27;98374.13;4996036;28;20064;-64
2021/05/05 10:30:37;;;;;;;4.13;1.52;;;;;;;10.33;46.92;98384.56;5012845;28;20454;-63
2021/05/05 10:33:02;;;;;;;3.47;1.70;;;;;;;10.45;43.79;98365.56;5011815;28;20033;-64
2021/05/05 10:35:28;;;;;;;2.40;1.60;;;;;;;11.91;42.07;98393.91;4978846;28;20038;-63
2021/05/05 10:37:59;;;;;;;2.65;1.55;;;;;;;11.32;43.72;98394.44;5013271;28;20033;-63
2021/05/05 10:40:26;;;;;;;2.60;1.50;;;;;;;10.62;45.19;98410.09;4994885;28;20048;-63
2021/05/05 10:42:59;;;;;;;1.52;1.33;;;;;;;10.09;46.25;98415.44;5013044;28;20097;-63
2021/05/05 10:45:30;;;;;;;1.40;1.30;;;;;;;10.18;48.16;98407.72;5005783;28;20100;-63
2021/05/05 10:48:07;;;;;;;1.23;1.10;;;;;;;9.51;49.51;98426.03;5025106;28;20146;-64
2021/05/05 10:50:54;;;;;;;1.38;1.13;;;;;;;8.81;52.52;98433.91;4994683;28;20485;-64
2021/05/05 10:53:40;;;;;;;1.02;1.02;;;;;;;8.55;53.01;98438.09;5012900;28;20461;-63
2021/05/05 10:56:23;;;;;;;1.13;1.08;;;;;;;8.65;52.63;98450.78;5011841;28;20056;-63
2021/05/05 10:58:58;;;;;;;0.90;0.90;;;;;;;8.76;54.22;98463.22;5012926;28;20022;-63
2021/05/05 11:01:39;;;;;;;2.00;1.30;;;;;;;8.84;53.20;98473.47;5011218;28;20582;-63
2021/05/05 11:04:06;;;;;;;3.00;1.27;;;;;;;8.87;53.52;98484.72;5012884;28;20034;-63
2021/05/05 11:06:32;;;;;;;1.35;1.05;;;;;;;8.98;52.98;98473.06;5012101;28;20048;-62
2021/05/05 11:09:10;;;;;;;1.33;1.08;;;;;;;9.12;53.72;98490.34;5012593;28;20046;-62
2021/05/05 11:11:42;;;;;;;1.38;1.10;;;;;;;9.20;52.76;98489.91;5012002;28;20045;-63
2021/05/05 11:14:08;;;;;;;1.00;0.90;;;;;;;8.59;53.67;98489.19;4998715;28;20033;-62
2021/05/05 11:16:52;;;;;;;1.48;1.00;;;;;;;8.15;53.77;98483.72;5027412;28;20034;-62
2021/05/05 11:19:36;;;;;;;0.70;0.70;;;;;;;8.50;53.00;98490.66;5012907;28;20034;-62
2021/05/05 11:22:20;;;;;;;0.85;0.80;;;;;;;8.57;52.48;98485.94;5015664;28;20038;-62
2021/05/05 11:24:46;;;;;;;1.10;1.00;;;;;;;8.87;50.27;98512.25;5028884;28;20034;-62
2021/05/05 11:27:12;;;;;;;1.35;0.90;;;;;;;8.80;49.79;98503.59;5015479;28;20366;-62
2021/05/05 11:29:46;;;;;;;1.27;0.98;;;;;;;8.82;49.33;98515.66;4998337;28;20029;-62
2021/05/05 11:32:18;;;;;;;0.98;0.95;;;;;;;9.11;48.30;98518.16;5015390;28;20458;-62
2021/05/05 11:34:47;;;;;;;0.95;0.90;;;;;;;9.38;48.38;98523.50;5015726;28;20034;-62
2021/05/05 11:37:12;;;;;;;0.93;0.93;;;;;;;9.67;47.25;98531.28;5015115;28;20520;-62
2021/05/05 11:39:45;;;;;;;1.08;0.98;;;;;;;9.95;47.18;98538.22;5015970;28;20076;-63
2021/05/05 11:42:23;;;;;;;3.72;1.30;;;;;;;9.78;47.46;98537.53;4997896;28;20440;-61
2021/05/05 11:44:54;;;;;;;2.10;1.13;;;;;;;9.83;45.76;98545.59;4998437;28;20045;-64
2021/05/05 11:47:41;;;;;;;1.60;1.25;;;;;;;9.36;46.50;98547.03;5015487;28;20046;-62